Time;durP1;ratioP1;P1;durP2;ratioP2;P2;SDS_P1;SDS_P2;PMS_P1;PMS_P2;Temp;Humidity;BMP_temperature;BMP_pressure;BME280_temperature;BME280_humidity;BME280_pressure;Samples;Min_cycle;Max_cycle;Signal;HPM_P1;HPM_P2
2023/11/03 05:30:51;;;;;;;0.10;0.10;;;7.90;84.20;;;;;;5745489;23;20046;-78
2023/11/03 05:33:17;;;;;;;0.20;0.20;;;7.90;84.50;;;;;;4994863;28;20026;-78
2023/11/03 05:35:44;;;;;;;0.10;0.10;;;7.90;84.70;;;;;;5001167;28;20137;-78
2023/11/03 05:38:10;;;;;;;0.10;0.10;;;7.90;84.80;;;;;;5000755;28;20031;-78
2023/11/03 05:40:35;;;;;;;0.10;0.10;;;8.00;84.80;;;;;;5007099;28;20029;-78
2023/11/03 05:43:01;;;;;;;0.10;0.10;;;8.00;84.80;;;;;;5020229;28;20036;-78
2023/11/03 05:45:27;;;;;;;0.10;0.10;;;7.90;85.10;;;;;;5019985;28;20061;-78
2023/11/03 05:47:54;;;;;;;0.10;0.10;;;7.90;85.00;;;;;;5020240;28;20038;-78
2023/11/03 05:50:20;;;;;;;0.10;0.10;;;7.90;85.20;;;;;;5002424;28;20045;-79
2023/11/03 05:52:45;;;;;;;0.10;0.10;;;8.00;85.30;;;;;;5013313;28;20385;-78
2023/11/03 05:55:11;;;;;;;0.10;0.10;;;8.00;85.50;;;;;;5000608;28;20030;-78
2023/11/03 05:57:37;;;;;;;0.10;0.10;;;8.10;85.10;;;;;;4982914;28;20022;-78
2023/11/03 06:00:09;;;;;;;0.10;0.10;;;8.10;85.10;;;;;;5015061;28;20045;-78
2023/11/03 06:02:38;;;;;;;0.10;0.10;;;8.10;85.20;;;;;;5004517;28;20038;-78
2023/11/03 06:05:05;;;;;;;0.10;0.10;;;8.10;85.10;;;;;;5014512;28;20041;-78
2023/11/03 06:07:35;;;;;;;0.10;0.10;;;8.10;85.30;;;;;;5014328;28;20361;-78
2023/11/03 06:10:01;;;;;;;0.10;0.10;;;8.20;85.30;;;;;;5000303;28;20027;-78
2023/11/03 06:12:26;;;;;;;0.10;0.10;;;8.20;85.20;;;;;;5000289;28;20012;-79
2023/11/03 06:14:52;;;;;;;0.10;0.10;;;8.20;85.20;;;;;;4999094;28;20045;-78
2023/11/03 06:17:18;;;;;;;0.10;0.10;;;8.30;85.30;;;;;;5011352;28;20516;-78
2023/11/03 06:19:43;;;;;;;0.10;0.10;;;8.30;85.10;;;;;;5001672;28;20037;-78
2023/11/03 06:22:09;;;;;;;0.00;0.00;;;8.30;85.10;;;;;;5002371;28;20065;-78
2023/11/03 06:24:35;;;;;;;0.10;0.10;;;8.40;85.00;;;;;;5002115;28;20646;-78
2023/11/03 06:27:01;;;;;;;0.10;0.10;;;8.40;84.90;;;;;;5019667;28;20081;-78
2023/11/03 06:29:27;;;;;;;0.10;0.10;;;8.40;84.90;;;;;;5008454;28;20027;-78
2023/11/03 06:31:53;;;;;;;0.10;0.10;;;8.40;84.90;;;;;;4982329;28;20049;-78
2023/11/03 06:34:19;;;;;;;0.10;0.10;;;8.40;85.00;;;;;;5003844;28;20029;-78
2023/11/03 06:36:44;;;;;;;0.10;0.10;;;8.40;85.00;;;;;;4999092;28;20054;-78
2023/11/03 06:39:10;;;;;;;0.10;0.10;;;8.40;85.10;;;;;;5000086;28;20396;-78
2023/11/03 06:41:36;;;;;;;0.10;0.10;;;8.50;85.00;;;;;;5016094;28;20358;-79
2023/11/03 06:44:02;;;;;;;0.10;0.10;;;8.50;85.00;;;;;;5001291;28;20108;-78
2023/11/03 06:46:28;;;;;;;0.10;0.10;;;8.50;84.90;;;;;;5016275;28;20045;-79
2023/11/03 06:48:53;;;;;;;0.10;0.10;;;8.50;84.80;;;;;;4997186;28;20899;-78
2023/11/03 06:51:19;;;;;;;0.10;0.10;;;8.50;85.00;;;;;;4983573;28;20014;-78
2023/11/03 06:53:44;;;;;;;0.10;0.10;;;8.50;85.10;;;;;;4982272;28;20030;-78
2023/11/03 06:56:11;;;;;;;0.10;0.10;;;8.60;85.00;;;;;;5008278;28;20104;-78
2023/11/03 06:58:36;;;;;;;0.10;0.10;;;8.60;85.00;;;;;;4999512;28;20500;-78
2023/11/03 07:01:04;;;;;;;0.10;0.10;;;8.60;85.10;;;;;;4999500;28;20101;-78
2023/11/03 07:03:31;;;;;;;0.10;0.10;;;8.60;85.00;;;;;;5000773;28;20119;-78
2023/11/03 07:05:57;;;;;;;0.10;0.10;;;8.60;85.10;;;;;;5001552;28;20021;-79
2023/11/03 07:08:24;;;;;;;0.10;0.10;;;8.60;85.10;;;;;;5018155;28;20081;-78
2023/11/03 07:10:50;;;;;;;0.10;0.10;;;8.60;85.20;;;;;;5016924;28;20018;-79
2023/11/03 07:13:16;;;;;;;0.10;0.10;;;8.70;84.90;;;;;;4997683;28;20053;-79
2023/11/03 07:15:43;;;;;;;0.10;0.10;;;8.70;85.10;;;;;;4999204;28;20050;-85
2023/11/03 07:18:09;;;;;;;0.00;0.00;;;8.70;85.00;;;;;;5005598;28;20066;-89
2023/11/03 07:21:12;;;;;;;0.10;0.10;;;8.70;85.20;;;;;;4982532;28;20037;-89
2023/11/03 07:23:38;;;;;;;0.10;0.10;;;8.70;85.20;;;;;;4970883;28;20466;-83
2023/11/03 07:26:07;;;;;;;0.10;0.10;;;8.70;85.20;;;;;;4994989;28;20066;-87
2023/11/03 07:28:32;;;;;;;0.10;0.10;;;8.70;85.20;;;;;;4981527;28;20033;-83
2023/11/03 07:30:58;;;;;;;0.10;0.10;;;8.70;85.00;;;;;;4981289;28;20035;-82
2023/11/03 07:33:24;;;;;;;0.10;0.10;;;8.70;85.10;;;;;;5016055;28;20688;-81
2023/11/03 07:35:52;;;;;;;0.10;0.10;;;8.70;85.00;;;;;;5012244;28;20022;-89
2023/11/03 07:38:18;;;;;;;0.10;0.10;;;8.70;84.90;;;;;;5018119;28;20045;-82
2023/11/03 07:40:44;;;;;;;0.10;0.10;;;8.60;85.10;;;;;;5016839;28;20030;-86
2023/11/03 07:43:10;;;;;;;0.10;0.10;;;8.70;85.20;;;;;;5002472;28;20026;-84
2023/11/03 07:45:37;;;;;;;0.10;0.10;;;8.60;85.10;;;;;;4989893;28;20026;-83
2023/11/03 07:48:03;;;;;;;0.10;0.10;;;8.60;85.30;;;;;;4981184;28;20034;-83
2023/11/03 07:50:29;;;;;;;0.10;0.10;;;8.70;85.20;;;;;;4997865;28;20113;-84
2023/11/03 07:52:54;;;;;;;0.10;0.10;;;8.70;85.10;;;;;;4981142;28;20030;-76
2023/11/03 07:55:20;;;;;;;0.10;0.10;;;8.70;85.00;;;;;;4999331;28;20054;-77
2023/11/03 07:57:47;;;;;;;0.10;0.10;;;8.80;85.00;;;;;;4998511;28;20536;-80
2023/11/03 08:00:13;;;;;;;0.10;0.10;;;8.80;84.90;;;;;;4998316;28;20370;-84
2023/11/03 08:02:39;;;;;;;0.10;0.10;;;8.90;85.00;;;;;;4980995;28;20041;-79
2023/11/03 08:05:06;;;;;;;0.10;0.10;;;9.00;85.10;;;;;;5008301;28;20036;-78
2023/11/03 08:07:33;;;;;;;0.10;0.10;;;8.90;85.00;;;;;;5013760;28;20408;-77
2023/11/03 08:09:59;;;;;;;0.10;0.10;;;8.90;85.00;;;;;;4991906;28;20022;-77
2023/11/03 08:12:25;;;;;;;0.10;0.10;;;9.00;84.90;;;;;;5011873;28;20084;-80
2023/11/03 08:14:52;;;;;;;0.10;0.10;;;9.00;84.90;;;;;;5017887;28;20049;-79
2023/11/03 08:17:19;;;;;;;0.10;0.10;;;9.00;84.90;;;;;;5000675;28;20530;-75
2023/11/03 08:19:45;;;;;;;0.10;0.10;;;9.00;85.30;;;;;;5005777;28;20026;-79
2023/11/03 08:22:11;;;;;;;0.10;0.10;;;9.00;85.30;;;;;;4986877;28;20164;-79
2023/11/03 08:24:37;;;;;;;0.10;0.10;;;8.90;85.20;;;;;;4995946;28;20062;-79
2023/11/03 08:27:03;;;;;;;0.10;0.10;;;8.90;85.20;;;;;;5015239;28;20029;-78
2023/11/03 08:29:29;;;;;;;0.10;0.10;;;8.90;85.20;;;;;;5008299;28;20029;-77
2023/11/03 08:31:55;;;;;;;0.10;0.10;;;8.90;85.40;;;;;;5005101;28;20049;-77
2023/11/03 08:34:21;;;;;;;0.10;0.10;;;8.80;85.40;;;;;;5008744;28;20057;-77
2023/11/03 08:36:46;;;;;;;0.10;0.10;;;8.80;85.70;;;;;;5008295;28;20025;-77
2023/11/03 08:39:12;;;;;;;0.10;0.10;;;8.80;85.70;;;;;;5007653;28;20489;-78
2023/11/03 08:41:39;;;;;;;0.10;0.10;;;8.70;85.60;;;;;;5008023;28;20030;-77
2023/11/03 08:44:05;;;;;;;0.10;0.10;;;8.70;85.90;;;;;;4989498;28;20149;-77
2023/11/03 08:46:31;;;;;;;0.20;0.20;;;8.70;85.80;;;;;;4990109;28;20053;-77
2023/11/03 08:48:59;;;;;;;0.10;0.10;;;8.80;86.10;;;;;;5008946;28;20034;-78
2023/11/03 08:51:26;;;;;;;0.10;0.10;;;8.90;86.10;;;;;;5008148;28;20022;-77
2023/11/03 08:53:52;;;;;;;0.10;0.10;;;9.00;86.00;;;;;;4989734;28;20272;-77
2023/11/03 08:56:20;;;;;;;0.10;0.10;;;9.10;86.20;;;;;;4984950;28;20068;-77
2023/11/03 08:58:46;;;;;;;0.10;0.10;;;9.20;86.00;;;;;;5001180;28;20029;-75
2023/11/03 09:01:12;;;;;;;0.10;0.10;;;9.20;86.00;;;;;;5031846;28;20482;-77
2023/11/03 09:03:38;;;;;;;0.10;0.10;;;9.30;86.20;;;;;;5008145;28;20025;-77
2023/11/03 09:06:07;;;;;;;0.10;0.10;;;9.30;86.20;;;;;;5007789;28;20030;-77
2023/11/03 09:08:33;;;;;;;0.10;0.10;;;9.50;86.30;;;;;;5004675;28;20484;-78
2023/11/03 09:10:59;;;;;;;0.10;0.10;;;9.50;86.20;;;;;;5008747;28;20095;-77
2023/11/03 09:13:26;;;;;;;0.10;0.10;;;9.60;86.10;;;;;;5007042;28;20101;-77
2023/11/03 09:15:52;;;;;;;0.10;0.10;;;9.60;86.10;;;;;;5007616;28;20019;-78
2023/11/03 09:18:18;;;;;;;0.20;0.20;;;9.70;86.00;;;;;;5003093;28;20041;-77
2023/11/03 09:20:47;;;;;;;2.80;2.60;;;9.80;85.70;;;;;;5007254;28;20097;-77
2023/11/03 09:23:13;;;;;;;1.65;1.55;;;10.10;85.40;;;;;;5003367;28;20092;-76
2023/11/03 09:25:38;;;;;;;7.35;7.05;;;10.30;84.70;;;;;;5005417;28;20026;-75
2023/11/03 09:28:04;;;;;;;1.52;1.42;;;10.50;84.20;;;;;;5007672;28;20022;-77
2023/11/03 09:30:30;;;;;;;2.45;2.25;;;10.70;83.30;;;;;;5000183;28;20200;-77
2023/11/03 09:32:56;;;;;;;1.30;1.30;;;10.80;83.10;;;;;;5007021;28;20080;-78
2023/11/03 09:35:22;;;;;;;0.10;0.10;;;10.80;82.40;;;;;;5005124;28;20105;-77
2023/11/03 09:37:48;;;;;;;0.05;0.05;;;10.90;82.70;;;;;;4985282;28;20054;-77
2023/11/03 09:40:16;;;;;;;0.10;0.10;;;10.80;82.40;;;;;;5011156;28;20531;-77
2023/11/03 09:42:43;;;;;;;0.10;0.10;;;10.80;82.10;;;;;;4987181;28;20069;-77
2023/11/03 09:45:11;;;;;;;0.10;0.10;;;10.90;82.30;;;;;;4993277;28;20072;-76
2023/11/03 09:47:38;;;;;;;0.10;0.10;;;10.80;82.20;;;;;;4996438;28;20030;-76
2023/11/03 09:50:06;;;;;;;0.10;0.10;;;10.90;82.40;;;;;;5003324;28;20045;-77
2023/11/03 09:52:38;;;;;;;0.10;0.10;;;10.90;82.70;;;;;;4998756;28;20026;-76
2023/11/03 09:55:06;;;;;;;0.10;0.10;;;10.90;82.10;;;;;;4995229;28;21069;-78
2023/11/03 09:57:32;;;;;;;0.10;0.10;;;11.00;82.00;;;;;;5010262;28;20033;-79
2023/11/03 10:00:00;;;;;;;0.10;0.10;;;11.00;81.90;;;;;;4990689;28;20034;-79
2023/11/03 10:02:26;;;;;;;0.10;0.10;;;11.00;82.20;;;;;;5002978;28;20026;-79
2023/11/03 10:04:52;;;;;;;0.10;0.10;;;11.00;81.30;;;;;;5006098;28;20026;-79
2023/11/03 10:07:18;;;;;;;0.10;0.10;;;11.00;81.70;;;;;;5011732;28;21241;-78
2023/11/03 10:09:44;;;;;;;0.10;0.10;;;11.10;82.00;;;;;;5018036;28;20077;-78
2023/11/03 10:12:11;;;;;;;0.10;0.10;;;11.10;82.10;;;;;;5011084;28;20034;-77
2023/11/03 10:14:39;;;;;;;0.10;0.10;;;11.20;81.80;;;;;;5001174;28;20022;-77
2023/11/03 10:17:05;;;;;;;0.10;0.10;;;11.20;82.00;;;;;;4991508;28;20033;-78
2023/11/03 10:19:30;;;;;;;0.10;0.10;;;11.20;81.90;;;;;;5017242;28;20392;-78
2023/11/03 10:21:57;;;;;;;0.10;0.10;;;11.20;81.50;;;;;;5019036;28;20097;-78
2023/11/03 10:24:23;;;;;;;0.10;0.10;;;11.30;81.60;;;;;;5022772;28;20037;-77
2023/11/03 10:26:53;;;;;;;0.10;0.10;;;11.40;81.60;;;;;;5019325;28;20022;-78
2023/11/03 10:29:19;;;;;;;0.10;0.10;;;11.40;81.60;;;;;;5018018;28;20022;-77
2023/11/03 10:31:49;;;;;;;0.10;0.10;;;11.40;81.70;;;;;;5007063;28;20131;-77
2023/11/03 10:34:19;;;;;;;0.10;0.10;;;11.50;81.60;;;;;;4995020;28;20109;-77
2023/11/03 10:36:48;;;;;;;0.10;0.10;;;11.50;81.30;;;;;;4986635;28;20044;-78
2023/11/03 10:39:14;;;;;;;0.20;0.20;;;11.50;81.30;;;;;;5011120;28;20029;-77
2023/11/03 10:41:41;;;;;;;0.10;0.10;;;11.60;81.30;;;;;;5008266;28;20018;-77
2023/11/03 10:44:13;;;;;;;0.10;0.10;;;11.70;81.70;;;;;;5010729;28;20031;-77
2023/11/03 10:46:45;;;;;;;0.10;0.10;;;11.70;81.40;;;;;;4997889;28;20026;-77
2023/11/03 10:49:33;;;;;;;0.10;0.10;;;11.80;81.10;;;;;;5003944;28;20100;-78
2023/11/03 10:52:13;;;;;;;0.10;0.10;;;11.90;81.10;;;;;;5015886;28;20022;-78
2023/11/03 10:54:48;;;;;;;0.10;0.10;;;11.90;80.20;;;;;;5018760;28;20029;-77
2023/11/03 10:57:15;;;;;;;0.10;0.10;;;12.00;80.40;;;;;;5012755;28;20030;-78
2023/11/03 10:59:48;;;;;;;0.10;0.10;;;12.10;80.20;;;;;;4983755;28;20034;-79
2023/11/03 11:02:24;;;;;;;0.10;0.10;;;12.20;79.40;;;;;;4981528;28;20508;-78
2023/11/03 11:05:02;;;;;;;0.10;0.10;;;12.20;79.90;;;;;;5003523;28;20042;-78
2023/11/03 11:07:33;;;;;;;0.10;0.10;;;12.10;80.10;;;;;;5015788;28;20022;-79
2023/11/03 11:09:58;;;;;;;0.10;0.10;;;12.00;80.20;;;;;;5001436;28;20384;-78
2023/11/03 11:12:45;;;;;;;0.10;0.10;;;12.00;80.50;;;;;;4999049;28;20026;-79
2023/11/03 11:15:14;;;;;;;0.10;0.10;;;12.20;80.40;;;;;;5008265;28;20101;-78
2023/11/03 11:17:40;;;;;;;0.10;0.10;;;12.40;80.00;;;;;;4986297;28;20097;-78
2023/11/03 11:20:10;;;;;;;0.08;0.08;;;12.40;80.00;;;;;;4988461;28;20034;-78
2023/11/03 11:22:40;;;;;;;0.00;0.00;;;12.30;80.10;;;;;;5009895;28;20023;-79
2023/11/03 11:25:08;;;;;;;0.10;0.10;;;12.30;80.40;;;;;;5006876;28;20026;-78
2023/11/03 11:27:37;;;;;;;0.00;0.00;;;12.30;80.40;;;;;;5011348;28;20102;-79
2023/11/03 11:30:14;;;;;;;0.10;0.10;;;12.40;80.60;;;;;;4992629;28;20117;-79
2023/11/03 11:32:53;;;;;;;0.10;0.10;;;12.50;80.40;;;;;;4991728;28;20073;-79
2023/11/03 11:35:20;;;;;;;0.10;0.10;;;12.30;80.40;;;;;;4982576;28;20039;-79
2023/11/03 11:37:47;;;;;;;0.00;0.00;;;12.50;80.80;;;;;;4968347;28;20076;-79
2023/11/03 11:40:12;;;;;;;0.10;0.10;;;12.60;80.40;;;;;;4965003;28;20042;-79
2023/11/03 11:42:43;;;;;;;0.10;0.10;;;12.70;80.30;;;;;;4990177;28;20145;-78
2023/11/03 11:45:14;;;;;;;0.10;0.10;;;12.80;80.00;;;;;;4980021;28;20401;-77
2023/11/03 11:47:46;;;;;;;0.08;0.08;;;12.90;79.70;;;;;;4976733;28;20409;-81
2023/11/03 11:50:16;;;;;;;0.10;0.10;;;13.00;79.50;;;;;;4983273;28;20026;-88
2023/11/03 11:52:49;;;;;;;0.00;0.00;;;13.00;79.00;;;;;;4980697;28;20121;-82
2023/11/03 11:55:15;;;;;;;;;;;13.20;78.70;;;;;;4987976;28;20027;-79
2023/11/03 11:57:43;;;;;;;0.10;0.10;;;13.30;78.40;;;;;;4981891;28;20457;-80
2023/11/03 12:00:15;;;;;;;0.10;0.10;;;13.40;78.60;;;;;;4961182;28;20038;-82
2023/11/03 12:02:41;;;;;;;0.00;0.00;;;13.30;78.30;;;;;;4982349;28;20041;-80
2023/11/03 12:05:07;;;;;;;0.10;0.10;;;13.30;78.10;;;;;;4981772;28;20288;-85
2023/11/03 12:07:34;;;;;;;0.10;0.10;;;13.30;78.30;;;;;;4967199;28;20031;-78
2023/11/03 12:10:00;;;;;;;0.10;0.10;;;13.40;78.00;;;;;;4990158;28;20011;-79
2023/11/03 12:12:27;;;;;;;0.10;0.10;;;13.30;78.10;;;;;;4961029;28;20382;-86
2023/11/03 12:14:54;;;;;;;0.10;0.10;;;13.30;78.50;;;;;;4960776;28;20019;-77
2023/11/03 12:17:20;;;;;;;0.10;0.10;;;13.30;78.40;;;;;;4997040;28;20030;-78
2023/11/03 12:19:49;;;;;;;0.10;0.10;;;13.30;78.20;;;;;;4982426;28;20037;-77
2023/11/03 12:22:23;;;;;;;0.00;0.00;;;13.30;78.80;;;;;;4979242;28;20030;-79
2023/11/03 12:24:55;;;;;;;0.10;0.10;;;13.30;78.60;;;;;;4977678;28;20022;-80
2023/11/03 12:27:22;;;;;;;0.10;0.10;;;13.20;78.20;;;;;;4981250;28;20031;-81
2023/11/03 12:29:48;;;;;;;0.10;0.10;;;13.20;78.50;;;;;;4994716;28;20504;-83
2023/11/03 12:32:14;;;;;;;0.10;0.10;;;13.30;78.50;;;;;;5006218;28;20054;-81
2023/11/03 12:34:54;;;;;;;0.05;0.05;;;13.50;78.20;;;;;;5016273;28;20098;-85
2023/11/03 12:37:20;;;;;;;0.10;0.10;;;13.50;78.30;;;;;;4997258;28;20054;-79
2023/11/03 12:46:05;;;;;;;0.10;0.10;;;13.50;78.40;;;;;;5002129;28;20092;-79
2023/11/03 12:48:31;;;;;;;0.10;0.10;;;13.60;78.40;;;;;;4987682;28;20039;-78
2023/11/03 12:50:57;;;;;;;0.00;0.00;;;13.70;78.20;;;;;;5007804;28;20018;-78
2023/11/03 12:53:23;;;;;;;0.10;0.10;;;13.70;78.40;;;;;;5005641;28;20022;-78
2023/11/03 12:56:07;;;;;;;0.00;0.00;;;13.70;78.10;;;;;;5005950;28;20081;-78
2023/11/03 12:58:39;;;;;;;0.10;0.10;;;13.80;77.80;;;;;;5003540;28;20109;-79
2023/11/03 13:01:05;;;;;;;0.10;0.10;;;13.80;77.80;;;;;;4987573;28;20034;-77
2023/11/03 13:03:31;;;;;;;0.10;0.10;;;13.80;77.70;;;;;;4983260;28;20034;-77
2023/11/03 13:06:06;;;;;;;0.10;0.10;;;13.70;77.90;;;;;;4985532;28;20080;-77
2023/11/03 13:08:32;;;;;;;0.10;0.10;;;13.70;77.60;;;;;;5000516;28;20037;-77
2023/11/03 13:10:59;;;;;;;0.10;0.10;;;13.70;78.00;;;;;;5008927;28;20027;-79
2023/11/03 13:13:24;;;;;;;0.10;0.10;;;13.80;78.10;;;;;;4986261;28;20161;-77
2023/11/03 13:15:50;;;;;;;0.10;0.10;;;13.70;78.20;;;;;;5007100;28;20023;-78
2023/11/03 13:18:15;;;;;;;0.10;0.10;;;13.70;78.30;;;;;;5002745;28;20034;-77
2023/11/03 13:20:41;;;;;;;0.10;0.10;;;13.70;78.40;;;;;;5000751;28;20026;-77
2023/11/03 13:23:07;;;;;;;0.10;0.10;;;13.70;78.50;;;;;;5008823;28;20077;-77
2023/11/03 13:25:33;;;;;;;0.10;0.10;;;13.70;78.60;;;;;;4994368;28;20029;-78
2023/11/03 13:28:01;;;;;;;0.10;0.10;;;13.60;78.70;;;;;;5005257;28;20029;-79
2023/11/03 13:30:27;;;;;;;0.10;0.10;;;13.50;79.50;;;;;;5034953;28;20021;-80
2023/11/03 13:32:54;;;;;;;0.10;0.10;;;13.60;78.90;;;;;;4980224;28;20033;-80
2023/11/03 13:35:20;;;;;;;0.10;0.10;;;13.70;78.70;;;;;;5012084;28;20054;-83
2023/11/03 13:37:48;;;;;;;0.10;0.10;;;13.70;78.30;;;;;;5017176;28;20064;-84
2023/11/03 13:40:15;;;;;;;0.10;0.10;;;13.80;78.40;;;;;;5001561;28;20034;-83
2023/11/03 13:42:42;;;;;;;0.10;0.10;;;13.80;78.10;;;;;;5001327;28;20036;-84
2023/11/03 13:45:08;;;;;;;0.10;0.10;;;13.90;77.90;;;;;;4999735;28;20044;-82
2023/11/03 13:47:34;;;;;;;0.10;0.10;;;14.00;77.10;;;;;;4983198;28;20464;-82
2023/11/03 13:50:00;;;;;;;0.10;0.10;;;14.10;77.00;;;;;;5019247;28;20022;-83
2023/11/03 13:52:26;;;;;;;0.10;0.10;;;14.20;76.70;;;;;;5019666;28;20034;-84
2023/11/03 13:54:54;;;;;;;0.10;0.10;;;14.10;76.50;;;;;;5018797;28;20025;-84
2023/11/03 13:57:20;;;;;;;0.00;0.00;;;14.30;76.80;;;;;;5000922;28;20034;-83
2023/11/03 13:59:47;;;;;;;0.10;0.10;;;14.20;76.50;;;;;;5004011;28;20365;-83
2023/11/03 14:02:12;;;;;;;0.05;0.05;;;14.20;76.70;;;;;;5019713;28;20029;-83
2023/11/03 14:04:42;;;;;;;0.00;0.00;;;14.20;76.20;;;;;;5002269;28;20056;-83
2023/11/03 14:07:09;;;;;;;0.10;0.10;;;14.10;76.50;;;;;;5002590;28;20034;-84
2023/11/03 14:09:35;;;;;;;0.10;0.10;;;14.10;76.60;;;;;;5001847;28;20053;-84
2023/11/03 14:12:01;;;;;;;0.10;0.10;;;14.00;76.90;;;;;;5002117;28;20037;-83
2023/11/03 14:14:27;;;;;;;0.10;0.10;;;14.30;76.80;;;;;;5019199;28;20552;-84
2023/11/03 14:16:53;;;;;;;0.10;0.10;;;14.30;76.60;;;;;;5019943;28;20030;-83
2023/11/03 14:19:18;;;;;;;0.10;0.10;;;14.30;76.30;;;;;;5015708;28;20078;-84
2023/11/03 14:21:44;;;;;;;0.00;0.00;;;14.20;76.10;;;;;;5012678;28;20027;-84
2023/11/03 14:24:14;;;;;;;0.10;0.10;;;14.20;75.80;;;;;;4982859;28;20152;-84
2023/11/03 14:26:44;;;;;;;0.10;0.10;;;14.20;75.60;;;;;;5000542;28;20169;-83
2023/11/03 14:29:17;;;;;;;0.10;0.10;;;14.10;75.70;;;;;;4982572;28;20065;-83
2023/11/03 14:31:43;;;;;;;0.10;0.10;;;14.10;76.10;;;;;;4999747;28;20035;-83
2023/11/03 14:34:13;;;;;;;0.10;0.10;;;14.20;75.50;;;;;;5006451;28;20042;-84
2023/11/03 14:36:42;;;;;;;0.10;0.10;;;14.20;75.50;;;;;;5001322;28;20025;-84
2023/11/03 14:39:09;;;;;;;0.10;0.10;;;14.30;75.40;;;;;;5001390;28;20026;-84
2023/11/03 14:41:38;;;;;;;0.10;0.10;;;14.20;75.60;;;;;;5014036;28;20105;-82
2023/11/03 14:44:07;;;;;;;0.10;0.10;;;14.20;75.90;;;;;;4994365;28;20037;-81
2023/11/03 14:46:36;;;;;;;0.10;0.10;;;14.20;75.80;;;;;;4979580;28;20034;-81
2023/11/03 14:49:03;;;;;;;0.10;0.10;;;14.10;75.80;;;;;;4995591;28;20042;-81
2023/11/03 14:51:29;;;;;;;0.10;0.10;;;14.10;76.10;;;;;;4999130;28;20018;-83
2023/11/03 14:53:55;;;;;;;0.10;0.10;;;14.10;76.00;;;;;;5000270;28;20112;-81
2023/11/03 14:56:21;;;;;;;0.03;0.03;;;14.10;76.00;;;;;;4997190;28;20161;-82
2023/11/03 14:58:48;;;;;;;0.10;0.10;;;14.00;76.20;;;;;;4987413;28;20400;-84
2023/11/03 15:01:15;;;;;;;0.10;0.10;;;14.00;76.00;;;;;;4996306;28;20121;-82
2023/11/03 15:03:41;;;;;;;0.00;0.00;;;14.00;76.40;;;;;;4991699;28;20042;-82
2023/11/03 15:06:08;;;;;;;0.10;0.10;;;14.00;76.30;;;;;;5018299;28;20037;-83
2023/11/03 15:08:33;;;;;;;0.00;0.00;;;13.90;76.30;;;;;;5016385;28;20034;-84
2023/11/03 15:10:59;;;;;;;0.10;0.10;;;13.80;76.40;;;;;;4982286;28;20022;-83
2023/11/03 15:13:25;;;;;;;0.00;0.00;;;13.80;77.20;;;;;;4999238;28;20448;-85
2023/11/03 15:15:54;;;;;;;0.10;0.10;;;13.70;79.20;;;;;;5000623;28;20029;-86
2023/11/03 15:18:20;;;;;;;0.10;0.10;;;13.60;80.60;;;;;;5000513;28;20053;-86
2023/11/03 15:20:46;;;;;;;0.10;0.10;;;13.50;81.30;;;;;;4977620;28;20038;-86
2023/11/03 15:23:12;;;;;;;0.10;0.10;;;13.50;81.00;;;;;;4981991;28;20033;-89
2023/11/03 15:25:37;;;;;;;0.10;0.10;;;13.50;81.20;;;;;;4994586;28;20461;-88
2023/11/03 15:28:03;;;;;;;0.10;0.10;;;13.40;81.40;;;;;;4989998;28;20089;-90
2023/11/03 15:30:30;;;;;;;0.10;0.10;;;13.30;81.90;;;;;;4991873;28;20038;-87
2023/11/03 15:32:55;;;;;;;0.00;0.00;;;13.20;82.20;;;;;;5001704;28;20022;-89
2023/11/03 15:35:21;;;;;;;0.10;0.10;;;13.10;82.50;;;;;;4996400;28;20686;-85
2023/11/03 15:37:47;;;;;;;0.00;0.00;;;13.00;82.80;;;;;;5000088;28;20487;-84
2023/11/03 15:40:19;;;;;;;0.00;0.00;;;13.00;82.90;;;;;;4991877;28;20030;-88
2023/11/03 15:42:45;;;;;;;0.10;0.10;;;13.00;83.10;;;;;;4991635;28;20237;-90
2023/11/03 15:45:14;;;;;;;0.10;0.10;;;13.00;83.40;;;;;;4994121;28;20038;-88
2023/11/03 15:47:43;;;;;;;0.10;0.10;;;12.90;83.60;;;;;;5000594;28;20034;-86
2023/11/03 15:50:12;;;;;;;0.00;0.00;;;13.00;83.70;;;;;;4992127;28;20030;-89
2023/11/03 15:52:42;;;;;;;0.03;0.03;;;13.00;83.90;;;;;;4987523;28;20037;-89
2023/11/03 15:55:12;;;;;;;0.10;0.10;;;13.00;83.80;;;;;;4979861;28;20030;-89
2023/11/03 15:57:38;;;;;;;0.10;0.10;;;13.10;83.70;;;;;;4997230;28;20026;-89
2023/11/03 16:00:06;;;;;;;0.10;0.10;;;13.20;83.80;;;;;;4992610;28;20040;-89
2023/11/03 16:02:33;;;;;;;0.10;0.10;;;13.30;83.50;;;;;;4999775;28;20045;-88
2023/11/03 16:05:03;;;;;;;0.03;0.03;;;13.20;83.60;;;;;;5001018;28;20061;-89
2023/11/03 16:07:29;;;;;;;0.10;0.10;;;13.20;83.60;;;;;;5007738;28;20041;-89
2023/11/03 16:09:59;;;;;;;0.10;0.10;;;13.00;83.80;;;;;;4981125;28;20485;-89
2023/11/03 16:12:27;;;;;;;0.10;0.10;;;12.90;83.80;;;;;;4990024;28;20041;-89
2023/11/03 16:14:52;;;;;;;0.08;0.08;;;12.80;84.20;;;;;;5000781;28;20021;-90
2023/11/03 16:17:18;;;;;;;0.15;0.10;;;12.80;83.90;;;;;;4998052;28;20030;-90
2023/11/03 16:19:44;;;;;;;0.10;0.10;;;12.80;84.20;;;;;;4993015;28;20022;-90
2023/11/03 16:22:10;;;;;;;0.10;0.10;;;12.90;84.00;;;;;;5013437;28;20042;-89
2023/11/03 16:24:36;;;;;;;0.10;0.10;;;12.80;83.60;;;;;;5007473;28;20109;-89
2023/11/03 16:27:02;;;;;;;0.10;0.10;;;12.80;84.00;;;;;;4999638;28;20129;-88
2023/11/03 16:29:28;;;;;;;0.10;0.10;;;12.70;83.90;;;;;;5000711;28;20049;-90
2023/11/03 16:31:53;;;;;;;0.10;0.10;;;12.70;83.80;;;;;;4992691;28;20046;-89
2023/11/03 16:34:20;;;;;;;0.10;0.10;;;12.50;83.70;;;;;;4985219;28;20030;-88
2023/11/03 16:36:46;;;;;;;0.10;0.10;;;12.50;83.30;;;;;;4996463;28;20034;-89
2023/11/03 16:39:12;;;;;;;0.10;0.10;;;12.40;83.00;;;;;;4996721;28;20022;-89
2023/11/03 16:41:39;;;;;;;0.10;0.10;;;12.30;82.50;;;;;;4996844;28;20034;-89
2023/11/03 16:44:09;;;;;;;0.10;0.10;;;12.30;82.60;;;;;;4992037;28;20072;-90
2023/11/03 16:46:34;;;;;;;0.10;0.10;;;12.30;82.60;;;;;;4977927;28;20027;-89
2023/11/03 16:49:00;;;;;;;0.10;0.10;;;12.30;82.80;;;;;;4997020;28;20040;-90
2023/11/03 16:51:26;;;;;;;0.10;0.10;;;12.20;82.90;;;;;;5005005;28;20441;-90
2023/11/03 16:53:56;;;;;;;0.08;0.08;;;12.10;82.90;;;;;;4995507;28;20023;-91
2023/11/03 16:56:22;;;;;;;0.10;0.10;;;12.10;82.80;;;;;;4996959;28;20033;-90
2023/11/03 16:58:53;;;;;;;0.10;0.10;;;12.10;82.90;;;;;;4996799;28;20034;-89
2023/11/03 17:01:19;;;;;;;0.10;0.10;;;12.00;83.00;;;;;;4997115;28;20030;-90
2023/11/03 17:03:44;;;;;;;0.05;0.05;;;12.00;83.10;;;;;;4995677;28;20041;-90
2023/11/03 17:06:11;;;;;;;0.10;0.10;;;12.00;83.00;;;;;;4996820;28;20034;-89
2023/11/03 17:08:37;;;;;;;0.10;0.10;;;12.00;82.80;;;;;;5012979;28;20065;-89
2023/11/03 17:11:03;;;;;;;0.10;0.10;;;11.90;82.80;;;;;;4993803;28;20023;-91
2023/11/03 17:13:29;;;;;;;0.10;0.10;;;11.90;82.80;;;;;;4997165;28;20025;-90
2023/11/03 17:15:54;;;;;;;0.10;0.10;;;11.90;82.60;;;;;;4996262;28;20485;-90
2023/11/03 17:18:20;;;;;;;0.10;0.10;;;11.90;82.60;;;;;;4994812;28;20049;-90
2023/11/03 17:20:46;;;;;;;0.10;0.10;;;11.90;82.20;;;;;;5019735;28;20503;-91
2023/11/03 17:23:13;;;;;;;0.10;0.10;;;11.90;82.10;;;;;;5019505;28;20404;-89
2023/11/03 17:25:41;;;;;;;0.10;0.10;;;11.90;81.70;;;;;;5004255;28;20026;-90
2023/11/03 17:28:10;;;;;;;0.10;0.10;;;11.80;81.70;;;;;;4983614;28;20099;-90
2023/11/03 17:30:36;;;;;;;0.10;0.10;;;11.80;81.60;;;;;;4994607;28;20038;-86
2023/11/03 17:33:03;;;;;;;0.10;0.10;;;11.80;81.80;;;;;;4999723;28;20102;-81
2023/11/03 17:35:28;;;;;;;0.10;0.10;;;11.80;81.70;;;;;;4990596;28;20488;-79
2023/11/03 17:37:56;;;;;;;0.10;0.10;;;11.80;81.80;;;;;;5002681;28;20057;-81
2023/11/03 17:40:23;;;;;;;0.10;0.10;;;11.80;81.80;;;;;;5003310;28;20057;-79
2023/11/03 17:42:50;;;;;;;0.10;0.10;;;11.80;81.50;;;;;;5007451;28;20026;-82
2023/11/03 17:45:19;;;;;;;0.10;0.10;;;11.80;81.50;;;;;;5005130;28;20034;-88
2023/11/03 17:47:46;;;;;;;0.10;0.10;;;11.80;81.50;;;;;;5004817;28;20045;-82
2023/11/03 17:50:17;;;;;;;0.10;0.10;;;11.70;81.90;;;;;;5011951;28;20404;-88
2023/11/03 17:52:43;;;;;;;0.10;0.10;;;11.70;82.00;;;;;;4990539;28;20022;-90
2023/11/03 17:55:09;;;;;;;0.10;0.10;;;11.60;81.80;;;;;;4999197;28;20041;-91
2023/11/03 17:57:36;;;;;;;0.10;0.10;;;11.60;81.70;;;;;;4993126;28;20042;-90
2023/11/03 18:00:04;;;;;;;0.10;0.10;;;11.60;81.70;;;;;;5013935;28;20050;-78
2023/11/03 18:02:31;;;;;;;0.05;0.05;;;11.60;81.90;;;;;;5017625;28;20033;-84
2023/11/03 18:04:56;;;;;;;0.10;0.10;;;11.50;81.90;;;;;;5004485;28;20040;-81
2023/11/03 18:07:23;;;;;;;0.10;0.10;;;11.50;81.90;;;;;;5011570;28;20113;-81
2023/11/03 18:09:49;;;;;;;0.10;0.10;;;11.50;82.20;;;;;;5008203;28;20025;-81
2023/11/03 18:12:14;;;;;;;0.10;0.10;;;11.50;82.20;;;;;;5014643;28;20038;-81
2023/11/03 18:14:41;;;;;;;0.10;0.10;;;11.50;82.30;;;;;;5017944;28;20026;-79
2023/11/03 18:17:07;;;;;;;0.10;0.10;;;11.40;82.40;;;;;;5010835;28;20101;-80
2023/11/03 18:19:33;;;;;;;0.10;0.10;;;11.50;82.50;;;;;;5016126;28;20018;-80
2023/11/03 18:21:59;;;;;;;0.00;0.00;;;11.40;82.50;;;;;;5014883;28;20049;-80
2023/11/03 18:24:25;;;;;;;0.10;0.10;;;11.40;82.70;;;;;;5017316;28;20018;-80
2023/11/03 18:26:51;;;;;;;0.10;0.10;;;11.30;82.50;;;;;;4996542;28;20022;-80